createdAt,value
2018-11-29T00:00:04.157Z,3.27
2018-11-29T00:01:07.475Z,3.26
2018-11-29T00:02:10.298Z,3.25
2018-11-29T00:03:13.150Z,3.26
2018-11-29T00:04:16.705Z,3.26
2018-11-29T00:05:19.748Z,3.28
2018-11-29T00:06:22.629Z,3.31
2018-11-29T00:07:25.794Z,3.29
2018-11-29T00:08:28.678Z,3.29
2018-11-29T00:09:35.491Z,3.31
2018-11-29T00:10:38.366Z,3.31
2018-11-29T00:11:41.248Z,3.32
2018-11-29T00:12:44.670Z,3.31
2018-11-29T00:13:47.883Z,3.33
2018-11-29T00:14:50.763Z,3.30
2018-11-29T00:15:53.617Z,3.32
2018-11-29T00:16:56.526Z,3.33
2018-11-29T00:17:59.739Z,3.35
2018-11-29T00:19:02.631Z,3.32
2018-11-29T00:20:05.859Z,3.30
2018-11-29T00:21:08.800Z,3.33
2018-11-29T00:22:11.641Z,3.32
2018-11-29T00:23:14.555Z,3.35
2018-11-29T00:24:17.412Z,3.34
2018-11-29T00:25:20.336Z,3.36
2018-11-29T00:26:23.504Z,3.36
2018-11-29T00:27:26.387Z,3.40
2018-11-29T00:28:29.342Z,3.38
2018-11-29T00:29:32.558Z,3.39
2018-11-29T00:30:36.266Z,3.41
2018-11-29T00:31:39.471Z,3.42
2018-11-29T00:32:42.691Z,3.44
2018-11-29T00:33:45.567Z,3.44
2018-11-29T00:34:48.439Z,3.42
2018-11-29T00:35:51.292Z,3.43
2018-11-29T00:36:54.180Z,3.42
2018-11-29T00:37:57.153Z,3.43
2018-11-29T00:39:00.350Z,3.41
2018-11-29T00:40:03.208Z,3.42
2018-11-29T00:41:06.222Z,3.38
2018-11-29T00:42:09.084Z,3.38
2018-11-29T00:43:11.949Z,3.35
2018-11-29T00:44:14.936Z,3.38
2018-11-29T00:45:18.319Z,3.36
2018-11-29T00:46:21.802Z,3.36
2018-11-29T00:47:24.670Z,3.33
2018-11-29T00:48:27.642Z,3.32
2018-11-29T00:49:30.713Z,3.27
2018-11-29T00:50:34.351Z,3.24
2018-11-29T00:51:38.154Z,3.18
2018-11-29T00:52:41.538Z,3.18
2018-11-29T00:53:44.412Z,3.18
2018-11-29T00:54:47.584Z,3.18
2018-11-29T00:55:50.989Z,3.16
2018-11-29T00:56:54.538Z,3.12
2018-11-29T00:57:58.386Z,3.09
2018-11-29T00:59:01.883Z,3.06
2018-11-29T01:00:05.464Z,3.06
2018-11-29T01:01:08.919Z,3.05
2018-11-29T01:02:12.163Z,3.01
2018-11-29T01:03:15.724Z,3.00
2018-11-29T01:04:19.528Z,2.98
2018-11-29T01:05:23.804Z,3.00
2018-11-29T01:06:27.291Z,3.02
2018-11-29T01:07:30.470Z,3.03
2018-11-29T01:08:34.830Z,3.02
2018-11-29T01:09:38.070Z,2.99
2018-11-29T01:10:41.862Z,3.02
2018-11-29T01:11:46.327Z,3.02
2018-11-29T01:12:49.972Z,3.00
2018-11-29T01:13:53.516Z,2.96
2018-11-29T01:14:56.674Z,2.94
2018-11-29T01:15:59.799Z,2.96
2018-11-29T01:17:02.804Z,3.00
2018-11-29T01:18:05.789Z,2.99
2018-11-29T01:19:08.921Z,2.96
2018-11-29T01:20:12.399Z,2.95
2018-11-29T01:21:15.619Z,2.94
2018-11-29T01:22:21.973Z,2.93
2018-11-29T01:23:25.490Z,2.88
2018-11-29T01:24:28.952Z,2.88
2018-11-29T01:25:32.070Z,2.88
2018-11-29T01:26:36.563Z,2.92
2018-11-29T01:27:40.010Z,2.94
2018-11-29T01:28:43.139Z,2.93
2018-11-29T01:29:46.311Z,2.93
2018-11-29T01:30:49.326Z,2.97
2018-11-29T01:31:52.820Z,2.95
2018-11-29T01:32:56.394Z,2.94
2018-11-29T01:33:59.717Z,2.90
2018-11-29T01:35:03.291Z,2.91
2018-11-29T01:36:07.149Z,2.92
2018-11-29T01:37:10.519Z,2.91
2018-11-29T01:38:13.959Z,2.88
2018-11-29T01:39:17.396Z,2.89
2018-11-29T01:40:22.697Z,2.86
2018-11-29T01:41:26.864Z,2.89
2018-11-29T01:42:30.663Z,2.88
2018-11-29T01:43:33.539Z,2.87
2018-11-29T01:44:37.284Z,2.86
2018-11-29T01:45:40.236Z,2.87
2018-11-29T01:46:43.475Z,2.89
2018-11-29T01:47:47.128Z,2.90
2018-11-29T01:48:50.378Z,2.89
2018-11-29T01:49:53.201Z,2.86
2018-11-29T01:50:56.019Z,2.86
2018-11-29T01:51:59.303Z,2.89
2018-11-29T01:53:02.317Z,2.85
2018-11-29T01:54:05.846Z,2.85
2018-11-29T01:55:09.613Z,2.84
2018-11-29T01:56:12.949Z,2.89
2018-11-29T01:57:16.305Z,2.89
2018-11-29T01:58:19.686Z,2.84
2018-11-29T01:59:22.510Z,2.85
2018-11-29T02:00:25.767Z,2.84
2018-11-29T02:01:29.269Z,2.86
2018-11-29T02:02:32.700Z,2.85
2018-11-29T02:03:35.887Z,2.81
2018-11-29T02:04:39.253Z,2.80
2018-11-29T02:05:42.731Z,2.82
2018-11-29T02:06:46.367Z,2.82
2018-11-29T02:07:49.978Z,2.84
2018-11-29T02:08:53.004Z,2.85
2018-11-29T02:10:01.040Z,2.86
2018-11-29T02:11:04.327Z,2.86
2018-11-29T02:12:07.791Z,2.85
2018-11-29T02:13:10.966Z,2.87
2018-11-29T02:14:14.130Z,2.88
2018-11-29T02:15:17.001Z,2.85
2018-11-29T02:16:20.102Z,2.85
2018-11-29T02:17:23.230Z,2.85
2018-11-29T02:18:26.230Z,2.85
2018-11-29T02:19:29.544Z,2.84
2018-11-29T02:20:33.228Z,2.88
2018-11-29T02:21:36.145Z,2.89
2018-11-29T02:22:39.975Z,2.87
2018-11-29T02:23:43.171Z,2.88
2018-11-29T02:24:46.095Z,2.85
2018-11-29T02:25:49.177Z,2.85
2018-11-29T02:26:52.530Z,2.85
2018-11-29T02:27:55.482Z,2.88
2018-11-29T02:28:59.012Z,2.86
2018-11-29T02:30:02.054Z,2.85
2018-11-29T02:31:05.232Z,2.84
2018-11-29T02:32:08.082Z,2.87
2018-11-29T02:33:11.550Z,2.86
2018-11-29T02:34:14.682Z,2.84
2018-11-29T02:35:18.062Z,2.84
2018-11-29T02:36:21.310Z,2.85
2018-11-29T02:37:24.254Z,2.87
2018-11-29T02:38:27.271Z,2.83
2018-11-29T02:39:31.132Z,2.82
2018-11-29T02:40:34.073Z,2.83
2018-11-29T02:41:37.069Z,2.82
2018-11-29T02:42:40.079Z,2.83
2018-11-29T02:43:43.215Z,2.86
2018-11-29T02:44:46.247Z,2.84
2018-11-29T02:45:49.875Z,2.83
2018-11-29T02:46:53.137Z,2.82
2018-11-29T02:47:56.520Z,2.82
2018-11-29T02:48:59.470Z,2.84
2018-11-29T02:50:03.027Z,2.86
2018-11-29T02:51:06.463Z,2.88
2018-11-29T02:52:10.330Z,2.87
2018-11-29T02:53:13.930Z,2.88
2018-11-29T02:54:17.834Z,2.88
2018-11-29T02:55:21.079Z,2.90
2018-11-29T02:56:24.523Z,2.90
2018-11-29T02:57:28.185Z,2.89
2018-11-29T02:58:32.072Z,2.90
2018-11-29T02:59:35.476Z,2.91
2018-11-29T03:00:39.355Z,2.88
2018-11-29T03:01:42.974Z,2.90
2018-11-29T03:02:46.492Z,2.90
2018-11-29T03:03:50.536Z,2.87
2018-11-29T03:04:55.614Z,2.86
2018-11-29T03:05:59.628Z,2.86
2018-11-29T03:07:03.558Z,2.87
2018-11-29T03:08:07.070Z,2.88
2018-11-29T03:09:10.867Z,2.90
2018-11-29T03:10:14.245Z,2.88
2018-11-29T03:11:18.333Z,2.85
2018-11-29T03:12:21.825Z,2.87
2018-11-29T03:13:25.492Z,2.88
2018-11-29T03:14:29.021Z,2.92
2018-11-29T03:15:32.105Z,2.90
2018-11-29T03:16:35.757Z,2.90
2018-11-29T03:17:41.229Z,2.88
2018-11-29T03:18:46.912Z,2.89
2018-11-29T03:19:50.614Z,2.91
2018-11-29T03:20:54.050Z,2.90
2018-11-29T03:21:57.600Z,2.87
2018-11-29T03:23:02.172Z,2.89
2018-11-29T03:24:06.087Z,2.89
2018-11-29T03:25:09.919Z,2.89
2018-11-29T03:26:13.369Z,2.87
2018-11-29T03:27:18.207Z,2.86
2018-11-29T03:28:21.620Z,2.84
2018-11-29T03:29:24.903Z,2.84
2018-11-29T03:30:28.377Z,2.86
2018-11-29T03:31:31.570Z,2.86
2018-11-29T03:32:34.790Z,2.87
2018-11-29T03:33:38.019Z,2.87
2018-11-29T03:34:42.805Z,2.87
2018-11-29T03:35:46.141Z,2.89
2018-11-29T03:36:50.183Z,2.89
2018-11-29T03:37:53.951Z,2.88
2018-11-29T03:38:58.039Z,2.85
2018-11-29T03:40:01.803Z,2.86
2018-11-29T03:41:04.722Z,2.84
2018-11-29T03:42:07.578Z,2.85
2018-11-29T03:43:11.629Z,2.85
2018-11-29T03:44:14.491Z,2.84
2018-11-29T03:45:17.561Z,2.84
2018-11-29T03:46:20.414Z,2.84
2018-11-29T03:47:23.540Z,2.82
2018-11-29T03:48:26.419Z,2.84
2018-11-29T03:49:29.656Z,2.83
2018-11-29T03:50:33.765Z,2.85
2018-11-29T03:51:36.700Z,2.81
2018-11-29T03:52:39.644Z,2.81
2018-11-29T03:53:42.524Z,2.78
2018-11-29T03:54:45.502Z,2.80
2018-11-29T03:55:48.743Z,2.80
2018-11-29T03:56:51.619Z,2.80
2018-11-29T03:57:54.572Z,2.82
2018-11-29T03:58:57.507Z,2.82
2018-11-29T04:00:01.369Z,2.80
2018-11-29T04:01:04.899Z,2.80
2018-11-29T04:02:08.451Z,2.79
2018-11-29T04:03:11.347Z,2.79
2018-11-29T04:04:14.306Z,2.76
2018-11-29T04:05:17.280Z,2.77
2018-11-29T04:06:20.296Z,2.80
2018-11-29T04:07:23.145Z,2.78
2018-11-29T04:08:26.515Z,2.77
2018-11-29T04:09:29.362Z,2.75
2018-11-29T04:10:32.240Z,2.75
2018-11-29T04:11:35.263Z,2.72
2018-11-29T04:12:38.208Z,2.71
2018-11-29T04:13:41.078Z,2.74
2018-11-29T04:14:44.384Z,2.72
2018-11-29T04:15:47.362Z,2.72
2018-11-29T04:16:50.462Z,2.71
2018-11-29T04:17:53.399Z,2.72
2018-11-29T04:18:56.289Z,2.72
2018-11-29T04:19:59.160Z,2.73
2018-11-29T04:21:02.026Z,2.71
2018-11-29T04:22:04.876Z,2.72
2018-11-29T04:23:07.739Z,2.72
2018-11-29T04:24:10.576Z,2.73
2018-11-29T04:25:13.531Z,2.73
2018-11-29T04:26:16.415Z,2.75
2018-11-29T04:27:19.295Z,2.76
2018-11-29T04:28:22.439Z,2.77
2018-11-29T04:29:25.322Z,2.76
2018-11-29T04:30:28.236Z,2.76
2018-11-29T04:31:31.139Z,2.76
2018-11-29T04:32:34.582Z,2.78
2018-11-29T04:33:39.998Z,2.81
2018-11-29T04:34:42.883Z,2.80
2018-11-29T04:35:45.928Z,2.80
2018-11-29T04:36:48.906Z,2.79
2018-11-29T04:37:52.309Z,2.78
2018-11-29T04:38:55.196Z,2.77
2018-11-29T04:39:58.092Z,2.77
2018-11-29T04:41:00.967Z,2.79
2018-11-29T04:42:04.970Z,2.78
2018-11-29T04:43:07.832Z,2.79
2018-11-29T04:44:11.234Z,2.80
2018-11-29T04:45:14.152Z,2.76
2018-11-29T04:46:17.113Z,2.78
2018-11-29T04:47:19.955Z,2.76
2018-11-29T04:48:22.928Z,2.76
2018-11-29T04:49:25.857Z,2.79
2018-11-29T04:50:29.107Z,2.80
2018-11-29T04:51:32.147Z,2.82
2018-11-29T04:52:35.110Z,2.82
2018-11-29T04:53:37.966Z,2.82
2018-11-29T04:54:40.968Z,2.82
2018-11-29T04:55:44.023Z,2.80
2018-11-29T04:56:47.288Z,2.85
2018-11-29T04:57:50.175Z,2.87
2018-11-29T04:58:53.041Z,2.89
2018-11-29T04:59:55.897Z,2.89
2018-11-29T05:00:58.745Z,2.87
2018-11-29T05:02:01.671Z,2.84
2018-11-29T05:03:06.045Z,2.89
2018-11-29T05:04:09.451Z,2.90
2018-11-29T05:05:12.520Z,2.91
2018-11-29T05:06:15.532Z,2.92
2018-11-29T05:07:18.528Z,2.90
2018-11-29T05:08:21.868Z,2.88
2018-11-29T05:09:24.736Z,2.90
2018-11-29T05:10:27.682Z,2.90
2018-11-29T05:11:30.539Z,2.90
2018-11-29T05:12:36.825Z,2.90
2018-11-29T05:13:39.799Z,2.90
2018-11-29T05:14:43.076Z,2.90
2018-11-29T05:15:45.950Z,2.91
2018-11-29T05:16:48.888Z,2.95
2018-11-29T05:17:51.840Z,2.93
2018-11-29T05:18:54.787Z,2.95
2018-11-29T05:19:57.660Z,2.97
2018-11-29T05:21:00.912Z,2.95
2018-11-29T05:22:03.800Z,2.96
2018-11-29T05:23:07.931Z,2.97
2018-11-29T05:24:11.522Z,2.95
2018-11-29T05:25:14.388Z,2.97
2018-11-29T05:26:17.355Z,2.97
2018-11-29T05:27:20.737Z,2.98
2018-11-29T05:28:23.667Z,2.97
2018-11-29T05:29:27.452Z,3.03
2018-11-29T05:30:30.458Z,3.06
2018-11-29T05:31:33.452Z,3.04
2018-11-29T05:32:36.346Z,3.03
2018-11-29T05:33:39.679Z,3.03
2018-11-29T05:34:42.669Z,3.07
2018-11-29T05:35:45.589Z,3.06
2018-11-29T05:36:49.084Z,3.03
2018-11-29T05:37:51.989Z,3.01
2018-11-29T05:38:55.341Z,2.99
2018-11-29T05:39:58.601Z,2.90
2018-11-29T05:41:01.690Z,2.89
2018-11-29T05:42:04.627Z,2.91
2018-11-29T05:43:07.537Z,2.90
2018-11-29T05:44:10.541Z,2.87
2018-11-29T05:45:14.078Z,2.86
2018-11-29T05:46:17.392Z,2.88
2018-11-29T05:47:20.324Z,2.86
2018-11-29T05:48:23.848Z,2.85
2018-11-29T05:49:26.815Z,2.85
2018-11-29T05:50:30.293Z,2.85
2018-11-29T05:51:33.212Z,2.85
2018-11-29T05:52:36.471Z,2.83
2018-11-29T05:53:39.342Z,2.80
2018-11-29T05:54:42.266Z,2.82
2018-11-29T05:55:45.157Z,2.80
2018-11-29T05:56:47.997Z,2.81
2018-11-29T05:57:51.343Z,2.83
2018-11-29T05:58:54.610Z,2.84
2018-11-29T05:59:58.906Z,2.79
2018-11-29T06:01:04.761Z,2.80
2018-11-29T06:02:08.431Z,2.82
2018-11-29T06:03:11.327Z,2.82
2018-11-29T06:04:14.194Z,2.84
2018-11-29T06:05:17.582Z,2.87
2018-11-29T06:06:20.444Z,2.92
2018-11-29T06:07:23.290Z,2.90
2018-11-29T06:08:26.186Z,2.89
2018-11-29T06:09:29.606Z,2.87
2018-11-29T06:10:34.682Z,2.86
2018-11-29T06:11:38.803Z,2.85
2018-11-29T06:12:41.722Z,2.85
2018-11-29T06:13:45.474Z,2.89
2018-11-29T06:14:48.528Z,2.89
2018-11-29T06:15:52.323Z,2.88
2018-11-29T06:16:55.248Z,2.86
2018-11-29T06:17:58.563Z,2.88
2018-11-29T06:19:01.477Z,2.88
2018-11-29T06:20:05.298Z,2.94
2018-11-29T06:21:08.157Z,2.92
2018-11-29T06:22:11.306Z,2.93
2018-11-29T06:23:15.010Z,2.93
2018-11-29T06:24:18.467Z,2.94
2018-11-29T06:25:21.724Z,2.90
2018-11-29T06:26:24.648Z,2.88
2018-11-29T06:27:27.513Z,2.86
2018-11-29T06:28:30.531Z,2.84
2018-11-29T06:29:33.443Z,2.84
2018-11-29T06:43:55.514Z,2.90
2018-11-29T06:44:58.378Z,2.93
2018-11-29T06:46:01.432Z,2.86
2018-11-29T06:47:04.308Z,2.87
2018-11-29T06:48:07.167Z,2.89
2018-11-29T06:49:10.526Z,2.86
2018-11-29T06:50:13.445Z,2.88
2018-11-29T06:51:16.401Z,2.87
2018-11-29T06:52:19.849Z,2.89
2018-11-29T06:53:27.611Z,2.90
2018-11-29T06:54:30.803Z,2.87
2018-11-29T06:55:37.713Z,2.87
2018-11-29T06:56:40.691Z,2.86
2018-11-29T06:57:43.578Z,2.85
2018-11-29T06:58:46.656Z,2.89
2018-11-29T06:59:49.722Z,2.86
2018-11-29T07:00:52.611Z,2.83
2018-11-29T07:01:56.008Z,2.86
2018-11-29T07:02:59.387Z,2.84
2018-11-29T07:04:02.286Z,2.85
2018-11-29T07:05:05.148Z,2.84
2018-11-29T07:06:08.076Z,2.82
2018-11-29T07:07:11.474Z,2.84
2018-11-29T07:08:14.720Z,2.88
2018-11-29T07:09:17.997Z,2.83
2018-11-29T07:10:25.687Z,2.85
2018-11-29T07:11:28.582Z,2.84
2018-11-29T07:12:32.684Z,2.81
2018-11-29T07:13:35.797Z,2.83
2018-11-29T07:14:39.918Z,2.80
2018-11-29T07:15:42.769Z,2.79
2018-11-29T07:16:47.668Z,2.84
2018-11-29T07:17:50.554Z,2.85
2018-11-29T07:18:53.420Z,2.83
2018-11-29T07:19:56.309Z,2.82
2018-11-29T07:20:59.611Z,2.84
2018-11-29T07:22:02.538Z,2.84
2018-11-29T07:23:05.424Z,2.82
2018-11-29T07:24:08.359Z,2.80
2018-11-29T07:25:12.187Z,2.81
2018-11-29T07:26:16.148Z,2.80
2018-11-29T07:27:21.520Z,2.76
2018-11-29T07:28:25.869Z,2.79
2018-11-29T07:29:30.837Z,2.77
2018-11-29T07:30:33.687Z,2.74
2018-11-29T07:31:36.537Z,2.70
2018-11-29T07:32:39.444Z,2.74
2018-11-29T07:33:44.949Z,2.67
2018-11-29T07:34:47.806Z,2.66
2018-11-29T07:35:50.659Z,2.63
2018-11-29T07:36:53.597Z,2.65
2018-11-29T07:37:56.469Z,2.64
2018-11-29T07:38:59.339Z,2.65
2018-11-29T07:40:02.619Z,2.66
2018-11-29T07:41:05.506Z,2.66
2018-11-29T07:42:09.147Z,2.68
2018-11-29T07:43:12.028Z,2.68
2018-11-29T07:44:14.940Z,2.69
2018-11-29T07:45:17.847Z,2.68
2018-11-29T07:46:21.066Z,2.68
2018-11-29T07:47:23.927Z,2.68
2018-11-29T07:48:26.812Z,2.68
2018-11-29T07:49:29.700Z,2.68
2018-11-29T07:50:32.582Z,2.68
2018-11-29T07:51:35.451Z,2.72
2018-11-29T07:52:39.710Z,2.73
2018-11-29T07:53:42.864Z,2.74
2018-11-29T07:54:47.059Z,2.71
2018-11-29T07:55:51.967Z,2.71
2018-11-29T07:56:57.138Z,2.77
2018-11-29T07:58:00.108Z,2.74
2018-11-29T07:59:03.324Z,2.73
2018-11-29T08:00:06.229Z,2.74
2018-11-29T08:01:09.118Z,2.74
2018-11-29T08:02:12.016Z,2.72
2018-11-29T08:03:14.893Z,2.72
2018-11-29T08:04:17.841Z,2.76
2018-11-29T08:05:21.199Z,2.77
2018-11-29T08:06:24.134Z,2.79
2018-11-29T08:07:27.045Z,2.77
2018-11-29T08:08:29.939Z,2.79
2018-11-29T08:09:32.927Z,2.78
2018-11-29T08:10:36.651Z,2.79
2018-11-29T08:11:39.837Z,2.81
2018-11-29T08:12:43.326Z,2.79
2018-11-29T08:13:46.956Z,2.77
2018-11-29T08:14:49.983Z,2.79
2018-11-29T08:15:52.901Z,2.81
2018-11-29T08:16:55.786Z,2.85
2018-11-29T08:17:58.645Z,2.83
2018-11-29T08:19:02.541Z,2.83
2018-11-29T08:20:05.475Z,2.82
2018-11-29T08:21:09.715Z,2.81
2018-11-29T08:22:15.708Z,2.81
2018-11-29T08:23:19.663Z,2.82
2018-11-29T08:24:22.633Z,2.80
2018-11-29T08:25:25.484Z,2.84
2018-11-29T08:26:28.390Z,2.87
2018-11-29T08:27:31.328Z,2.89
2018-11-29T08:28:34.252Z,2.88
2018-11-29T08:29:37.639Z,2.84
2018-11-29T08:30:41.575Z,2.85
2018-11-29T08:31:44.468Z,2.90
2018-11-29T08:32:47.320Z,2.91
2018-11-29T08:33:51.864Z,2.90
2018-11-29T08:34:55.092Z,2.87
2018-11-29T08:35:58.476Z,2.90
2018-11-29T08:37:01.332Z,2.93
2018-11-29T08:38:06.514Z,2.95
2018-11-29T08:39:09.369Z,2.98
2018-11-29T08:40:13.277Z,3.01
2018-11-29T08:41:16.811Z,3.01
2018-11-29T08:42:20.726Z,2.99
2018-11-29T08:43:23.872Z,2.93
2018-11-29T08:44:28.418Z,2.92
2018-11-29T08:45:32.156Z,2.88
2018-11-29T08:46:38.408Z,2.88
2018-11-29T08:47:41.315Z,2.90
2018-11-29T08:48:45.607Z,2.86
2018-11-29T08:49:48.475Z,2.86
2018-11-29T08:50:52.198Z,2.87
2018-11-29T08:51:55.805Z,2.90
2018-11-29T08:52:59.073Z,2.94
2018-11-29T08:54:02.173Z,2.99
2018-11-29T08:55:07.512Z,3.01
2018-11-29T08:56:10.400Z,3.05
2018-11-29T08:57:14.114Z,3.07
2018-11-29T08:58:17.018Z,3.13
2018-11-29T08:59:20.271Z,3.11
2018-11-29T09:00:23.793Z,3.14
2018-11-29T09:01:28.515Z,3.16
2018-11-29T09:02:31.388Z,3.15
2018-11-29T09:03:34.304Z,3.13
2018-11-29T09:04:37.167Z,3.12
2018-11-29T09:05:40.106Z,3.15
2018-11-29T09:06:44.764Z,3.19
2018-11-29T09:07:48.693Z,3.22
2018-11-29T09:08:51.820Z,3.21
2018-11-29T09:09:54.763Z,3.24
2018-11-29T09:10:57.634Z,3.26
2018-11-29T09:12:00.568Z,3.30
2018-11-29T09:13:03.580Z,3.30
2018-11-29T09:14:06.566Z,3.32
2018-11-29T09:15:09.449Z,3.37
2018-11-29T09:16:12.409Z,3.38
2018-11-29T09:17:15.412Z,3.37
2018-11-29T09:18:18.342Z,3.33
2018-11-29T09:19:21.555Z,3.38
2018-11-29T09:20:24.417Z,3.43
2018-11-29T09:21:27.343Z,3.40
2018-11-29T09:22:30.227Z,3.43
2018-11-29T09:23:33.673Z,3.50
2018-11-29T09:24:36.608Z,3.47
2018-11-29T09:25:40.007Z,3.44
2018-11-29T09:26:42.892Z,3.46
2018-11-29T09:27:45.748Z,3.46
2018-11-29T09:28:48.627Z,3.44
2018-11-29T09:29:56.393Z,3.48
2018-11-29T09:31:00.467Z,3.44
2018-11-29T09:32:03.703Z,3.41
2018-11-29T09:33:07.523Z,3.46
2018-11-29T09:34:10.449Z,3.44
2018-11-29T09:35:13.347Z,3.41
2018-11-29T09:36:16.295Z,3.40
2018-11-29T09:37:20.431Z,3.39
2018-11-29T09:38:24.539Z,3.35
2018-11-29T09:39:28.160Z,3.40
2018-11-29T09:40:31.263Z,3.48
2018-11-29T09:41:36.005Z,3.48
2018-11-29T09:42:40.449Z,3.45
2018-11-29T09:43:44.778Z,3.46
2018-11-29T09:44:48.017Z,3.50
2018-11-29T09:45:50.986Z,3.47
2018-11-29T09:46:54.663Z,3.44
2018-11-29T09:47:57.837Z,3.48
2018-11-29T09:49:01.246Z,3.42
2018-11-29T09:50:04.153Z,3.43
2018-11-29T09:51:08.454Z,3.46
2018-11-29T09:52:11.328Z,3.43
2018-11-29T09:53:14.200Z,3.47
2018-11-29T09:54:17.079Z,3.46
2018-11-29T09:55:20.949Z,3.49
2018-11-29T09:56:23.860Z,3.51
2018-11-29T09:57:27.527Z,3.54
2018-11-29T09:58:30.391Z,3.57
2018-11-29T09:59:34.446Z,3.55
2018-11-29T10:00:39.579Z,3.53
2018-11-29T10:01:42.456Z,3.53
2018-11-29T10:02:45.418Z,3.50
2018-11-29T10:03:48.931Z,3.48
2018-11-29T10:04:51.839Z,3.49
2018-11-29T10:05:55.283Z,3.50
2018-11-29T10:06:58.781Z,3.50
2018-11-29T10:08:01.649Z,3.51
2018-11-29T10:09:05.920Z,3.48
2018-11-29T10:10:08.832Z,3.50
2018-11-29T10:11:11.708Z,3.47
2018-11-29T10:12:14.591Z,3.43
2018-11-29T10:13:19.151Z,3.41
2018-11-29T10:14:24.110Z,3.41
2018-11-29T10:15:27.013Z,3.37
2018-11-29T10:16:29.873Z,3.33
2018-11-29T10:17:32.823Z,3.34
2018-11-29T10:18:35.752Z,3.33
2018-11-29T10:19:38.790Z,3.33
2018-11-29T10:20:42.131Z,3.42
2018-11-29T10:21:46.388Z,3.45
2018-11-29T10:22:50.487Z,3.43
2018-11-29T10:23:54.429Z,3.42
2018-11-29T10:25:01.506Z,3.46
2018-11-29T10:26:04.729Z,3.50
2018-11-29T10:27:10.626Z,3.50
2018-11-29T10:28:13.535Z,3.47
2018-11-29T10:29:16.732Z,3.50
2018-11-29T10:30:19.682Z,3.52
2018-11-29T10:31:23.716Z,3.55
2018-11-29T10:32:27.739Z,3.56
2018-11-29T10:33:32.484Z,3.64
2018-11-29T10:34:35.445Z,3.63
2018-11-29T10:35:40.019Z,3.64
2018-11-29T10:36:43.115Z,3.62
2018-11-29T10:37:46.291Z,3.64
2018-11-29T10:38:49.664Z,3.66
2018-11-29T10:39:52.742Z,3.72
2018-11-29T10:40:55.659Z,3.73
2018-11-29T10:42:01.488Z,3.73
2018-11-29T10:43:04.442Z,3.70
2018-11-29T10:44:07.325Z,3.67
2018-11-29T10:45:11.580Z,3.70
2018-11-29T10:46:15.823Z,3.70
2018-11-29T10:47:17.900Z,3.70
2018-11-29T10:48:20.773Z,3.69
2018-11-29T10:49:23.845Z,3.68
2018-11-29T10:50:26.728Z,3.72
2018-11-29T10:51:30.047Z,3.74
2018-11-29T10:52:33.005Z,3.76
2018-11-29T10:53:37.129Z,3.74
2018-11-29T10:54:39.672Z,3.78
2018-11-29T10:55:43.238Z,3.81
2018-11-29T10:56:46.397Z,3.79
2018-11-29T10:57:50.949Z,3.80
2018-11-29T10:58:53.896Z,3.82
2018-11-29T10:59:58.459Z,3.82
2018-11-29T11:01:05.127Z,3.84
2018-11-29T11:02:14.049Z,3.85
2018-11-29T11:03:19.420Z,3.87
2018-11-29T11:04:22.717Z,3.89
2018-11-29T11:05:25.634Z,3.87
2018-11-29T11:06:28.539Z,3.92
2018-11-29T11:07:31.450Z,3.91
2018-11-29T11:08:34.359Z,3.94
2018-11-29T11:09:37.257Z,3.98
2018-11-29T11:10:40.505Z,4.01
2018-11-29T11:11:45.018Z,4.02
2018-11-29T11:12:47.890Z,4.03
2018-11-29T11:13:51.327Z,4.03
2018-11-29T11:14:54.183Z,4.01
2018-11-29T11:15:57.258Z,4.04
2018-11-29T11:17:00.391Z,4.05
2018-11-29T11:18:03.591Z,4.06
2018-11-29T11:19:06.528Z,4.05
2018-11-29T11:20:09.824Z,4.08
2018-11-29T11:21:12.817Z,4.08
2018-11-29T11:22:16.404Z,4.09
2018-11-29T11:23:20.749Z,4.08
2018-11-29T11:24:23.919Z,4.06
2018-11-29T11:25:26.970Z,4.10
2018-11-29T11:26:30.389Z,4.15
2018-11-29T11:27:33.659Z,4.17
2018-11-29T11:28:38.644Z,4.17
2018-11-29T11:42:55.930Z,4.29
2018-11-29T11:43:58.894Z,4.35
2018-11-29T11:45:01.806Z,4.33
2018-11-29T11:46:06.314Z,4.28
2018-11-29T11:47:10.067Z,4.30
2018-11-29T11:48:14.405Z,4.32
2018-11-29T11:49:17.345Z,4.28
2018-11-29T11:50:20.432Z,4.21
2018-11-29T11:51:23.701Z,4.21
2018-11-29T11:52:26.638Z,4.25
2018-11-29T11:53:30.502Z,4.27
2018-11-29T11:54:33.849Z,4.28
2018-11-29T11:55:37.558Z,4.26
2018-11-29T11:56:40.429Z,4.18
2018-11-29T11:57:44.261Z,4.19
2018-11-29T11:58:47.237Z,4.20
2018-11-29T11:59:50.191Z,4.23
2018-11-29T12:00:53.204Z,4.25
2018-11-29T12:01:56.353Z,4.27
2018-11-29T12:02:59.685Z,4.25
2018-11-29T12:04:04.685Z,4.23
2018-11-29T12:05:07.592Z,4.22
2018-11-29T12:06:11.783Z,4.23
2018-11-29T12:07:15.330Z,4.25
2018-11-29T12:08:18.703Z,4.22
2018-11-29T12:09:23.260Z,4.23
2018-11-29T12:10:28.440Z,4.22
2018-11-29T12:11:31.412Z,4.25
2018-11-29T12:12:35.071Z,4.22
2018-11-29T12:13:38.000Z,4.22
2018-11-29T12:14:40.898Z,4.14
2018-11-29T12:15:43.944Z,4.15
2018-11-29T12:16:46.877Z,4.12
2018-11-29T12:17:49.792Z,4.17
2018-11-29T12:18:53.149Z,4.24
2018-11-29T12:19:56.030Z,4.27
2018-11-29T12:20:58.889Z,4.28
2018-11-29T12:22:01.799Z,4.24
2018-11-29T12:23:05.301Z,4.20
2018-11-29T12:24:08.165Z,4.18
2018-11-29T12:25:11.050Z,4.15
2018-11-29T12:26:15.097Z,4.16
2018-11-29T12:27:17.967Z,4.23
2018-11-29T12:28:20.875Z,4.19
2018-11-29T12:29:23.773Z,4.22
2018-11-29T12:30:27.207Z,4.26
2018-11-29T12:31:31.667Z,4.25
2018-11-29T12:32:34.724Z,4.21
2018-11-29T12:33:37.721Z,4.23
2018-11-29T12:34:40.692Z,4.22
2018-11-29T12:35:44.340Z,4.32
2018-11-29T12:36:48.411Z,4.32
2018-11-29T12:37:53.319Z,4.33
2018-11-29T12:38:59.980Z,4.29
2018-11-29T12:40:02.913Z,4.27
2018-11-29T12:41:05.961Z,4.27
2018-11-29T12:42:09.273Z,4.27
2018-11-29T12:43:13.333Z,4.23
2018-11-29T12:44:22.021Z,4.30
2018-11-29T12:45:26.351Z,4.32
2018-11-29T12:46:29.372Z,4.37
2018-11-29T12:47:32.241Z,4.38
2018-11-29T12:48:35.730Z,4.39
2018-11-29T12:49:38.602Z,4.38
2018-11-29T12:50:41.500Z,4.39
2018-11-29T12:51:44.430Z,4.44
2018-11-29T12:52:47.578Z,4.52
2018-11-29T12:53:50.488Z,4.53
2018-11-29T12:54:54.260Z,4.60
2018-11-29T12:55:57.475Z,4.63
2018-11-29T12:57:01.654Z,4.56
2018-11-29T12:58:05.610Z,4.55
2018-11-29T12:59:07.549Z,4.58
2018-11-29T13:00:11.523Z,4.62
2018-11-29T13:01:15.577Z,4.58
2018-11-29T13:02:18.568Z,4.54
2018-11-29T13:03:22.478Z,4.48
2018-11-29T13:04:26.327Z,4.45
2018-11-29T13:05:29.227Z,4.42
2018-11-29T13:06:32.109Z,4.43
2018-11-29T13:07:35.439Z,4.36
2018-11-29T13:08:38.322Z,4.32
2018-11-29T13:09:42.027Z,4.32
2018-11-29T13:10:44.999Z,4.28
2018-11-29T13:11:48.780Z,4.27
2018-11-29T13:12:53.136Z,4.22
2018-11-29T13:13:57.474Z,4.20
2018-11-29T13:15:00.811Z,4.20
2018-11-29T13:16:03.809Z,4.18
2018-11-29T13:17:06.682Z,4.18
2018-11-29T13:18:10.362Z,4.18
2018-11-29T13:19:13.323Z,4.20
2018-11-29T13:20:16.605Z,4.20
2018-11-29T13:21:21.124Z,4.21
2018-11-29T13:22:24.155Z,4.19
2018-11-29T13:23:27.385Z,4.23
2018-11-29T13:24:30.257Z,4.25
2018-11-29T13:25:33.300Z,4.27
2018-11-29T13:26:37.626Z,4.23
2018-11-29T13:27:43.605Z,4.19
2018-11-29T13:28:46.490Z,4.20
2018-11-29T13:29:50.518Z,4.20
2018-11-29T13:30:53.596Z,4.19
2018-11-29T13:31:56.380Z,4.21
2018-11-29T13:33:02.359Z,4.23
2018-11-29T13:34:05.329Z,4.25
2018-11-29T13:35:08.243Z,4.24
2018-11-29T13:36:12.988Z,4.29
2018-11-29T13:37:20.490Z,4.30
2018-11-29T13:38:25.607Z,4.30
2018-11-29T13:39:30.350Z,4.32
2018-11-29T13:40:34.487Z,4.31
2018-11-29T13:41:37.462Z,4.28
2018-11-29T13:42:42.275Z,4.25
2018-11-29T13:43:45.294Z,4.24
2018-11-29T13:44:55.048Z,4.20
2018-11-29T13:45:58.512Z,4.24
2018-11-29T13:47:01.421Z,4.25
2018-11-29T13:48:05.424Z,4.24
2018-11-29T13:49:08.308Z,4.26
2018-11-29T13:50:12.617Z,4.24
2018-11-29T13:51:15.908Z,4.26
2018-11-29T13:52:19.659Z,4.28
2018-11-29T13:53:22.656Z,4.27
2018-11-29T13:54:26.307Z,4.24
2018-11-29T13:55:29.548Z,4.25
2018-11-29T13:56:34.498Z,4.27
2018-11-29T13:57:38.097Z,4.28
2018-11-29T13:58:41.367Z,4.26
2018-11-29T13:59:46.509Z,4.26
2018-11-29T14:00:49.369Z,4.31
2018-11-29T14:01:53.079Z,4.35
2018-11-29T14:02:56.293Z,4.41
2018-11-29T14:03:59.364Z,4.44
2018-11-29T14:05:02.670Z,4.47
2018-11-29T14:06:06.177Z,4.49
2018-11-29T14:07:09.296Z,4.49
2018-11-29T14:08:12.185Z,4.49
2018-11-29T14:09:15.057Z,4.47
2018-11-29T14:10:18.470Z,4.45
2018-11-29T14:11:22.388Z,4.48
2018-11-29T14:12:25.274Z,4.44
2018-11-29T14:13:28.158Z,4.41
2018-11-29T14:14:31.458Z,4.27
2018-11-29T14:15:34.314Z,4.18
2018-11-29T14:16:37.820Z,4.16
2018-11-29T14:17:41.844Z,4.12
2018-11-29T14:18:44.716Z,4.09
2018-11-29T14:19:48.282Z,4.12
2018-11-29T14:20:51.852Z,4.08
2018-11-29T14:21:54.835Z,4.10
2018-11-29T14:22:58.241Z,4.07
2018-11-29T14:24:01.690Z,4.10
2018-11-29T14:25:04.670Z,4.05
2018-11-29T14:26:08.428Z,4.06
2018-11-29T14:27:11.603Z,4.00
2018-11-29T14:28:14.641Z,4.02
2018-11-29T14:29:18.301Z,4.02
2018-11-29T14:30:21.244Z,4.05